Weather observations for the past three days for
Hobbs / Lea County
Imperial (Metric)
Date Time (mdt) Wind (mph) Vis. (mi.) Weather Sky Cond. Temperature (ºF) Relative Humidity Wind Chill (°F) Heat Index (°F) Pressure Precipitation (in)
Air Dwpt 6 hour altimeter (in) sea level (mb) 1 hr 3 hr 6 hr
Max. Min.
04 13:50 SW 18 G 28 10.00 Fair CLR 80.6 35.6 20% 79 29.86 0.0
04 12:50 SW 22 G 29 10.00 Fair and Breezy CLR 80.6 37.4 21% 79 29.89 0.0
04 11:50 SW 20 10.00 Fair CLR 80.6 39.2 23% 79 29.9 0.0
04 10:50 SW 15 G 24 10.00 Fair CLR 80.6 44.6 28% 79 29.91 0.0
04 09:50 SW 12 10.00 Fair CLR 75.2 50 41% 78 29.92 0.0
04 08:50 SW 9 10.00 Fair CLR 66.2 51.8 60% 29.93 0.0
04 07:50 SW 8 10.00 Fair CLR 60.8 50 68% 29.92 0.0
04 06:50 SW 3 10.00 Fair CLR 53.6 50 88% 29.91 0.0
04 05:50 SW 5 10.00 Fair CLR 53.6 48.2 82% 29.89 0.0
04 01:35 S 9 10.00 Fair CLR 57.2 48.2 72% 29.95 0.0
03 23:15 S 10 10.00 Fair CLR 60.8 48.2 63% 29.98 0.0
03 19:15 SW 10 10.00 Fair CLR 69.8 42.8 38% 29.97 0.0
03 18:55 S 12 10.00 Fair CLR 71.6 42.8 36% 29.97 0.0
03 18:15 SW 12 G 22 10.00 Fair CLR 73.4 41 31% 29.99 0.0
03 14:50 SW 17 10.00 A Few Clouds FEW060 73.4 44.6 36% 30.07 0.0
03 13:50 S 14 G 22 10.00 A Few Clouds FEW060 73.4 44.6 36% 30.09 0.0
03 11:50 S 16 10.00 Fair CLR 68 44.6 43% 30.16 0.0
03 10:50 S 16 10.00 Fair CLR 68 44.6 43% 30.18 0.0
03 09:50 S 16 10.00 Fair CLR 64.4 46.4 52% 30.19 0.0
03 08:50 S 12 10.00 Fair CLR 60.8 46.4 59% 30.21 0.0
03 07:50 S 10 10.00 Fair CLR 55.4 48.2 77% 30.2 0.0
03 06:50 S 7 10.00 Fair CLR 50 46.4 88% 48 30.18 0.0
03 05:50 S 7 10.00 Fair CLR 48.2 44.6 87% 46 30.17 0.0
03 04:55 SW 7 10.00 Fair CLR 48.2 44.6 87% 46 30.17 0.0
03 04:15 SW 7 10.00 Fair CLR 48.2 44.6 87% 46 30.18 0.0
03 03:15 SW 5 10.00 Fair CLR 50 44.6 82% 49 30.18 0.0
02 20:15 S 5 10.00 Mostly Cloudy BKN055 59 44.6 59% 30.18 0.0
02 19:55 S 6 10.00 A Few Clouds FEW060 59 44.6 59% 30.18 0.0
02 19:35 S 7 10.00 Partly Cloudy SCT060 60.8 42.8 52% 30.17 0.0
02 19:15 S 3 10.00 Partly Cloudy FEW060 SCT120 62.6 41 45% 30.17 0.0
02 18:55 S 5 10.00 Mostly Cloudy BKN120 62.6 39.2 42% 30.17 0.0
02 18:35 Vrbl 5 10.00 Mostly Cloudy BKN120 64.4 39.2 40% 30.17 0.0
02 18:15 SE 6 10.00 Overcast OVC120 64.4 37.4 37% 30.17 0.0
02 17:50 S 6 10.00 Overcast OVC110 64.4 37.4 37% 30.17 0.0
02 15:50 S 7 10.00 Partly Cloudy SCT060 64.4 39.2 40% 30.19 0.0
02 14:50 S 3 10.00 Overcast OVC055 64.4 37.4 37% 30.21 0.0
02 13:50 S 3 10.00 Overcast SCT050 OVC060 62.6 39.2 42% 30.23 0.0
02 12:50 S 10 10.00 Mostly Cloudy BKN050 62.6 39.2 42% 30.25 0.0
02 11:50 S 6 10.00 Mostly Cloudy BKN050 60.8 39.2 45% 30.27 0.0
02 10:50 S 9 10.00 Partly Cloudy SCT045 59 39.2 48% 30.27 0.0
02 09:50 SW 9 10.00 A Few Clouds FEW045 59 35.6 42% 30.27 0.0
02 08:50 Calm 10.00 Mostly Cloudy BKN180 57.2 41 55% 30.27 0.0
02 07:50 Calm 10.00 Partly Cloudy SCT060 51.8 42.8 72% 30.26 0.0
02 06:50 N 6 10.00 Mostly Cloudy BKN060 46.4 42.8 87% 44 30.25 0.0
02 05:50 N 6 10.00 Fair CLR 44.6 41 87% 42 30.22 0.0
02 05:15 N 7 10.00 Mostly Cloudy BKN065 46.4 42.8 87% 43 30.22 0.0
02 04:55 N 8 10.00 Fair CLR 46.4 42.8 87% 43 30.22 0.0
02 04:15 NW 7 10.00 Fair CLR 46.4 44.6 93% 43 30.21 0.0
02 03:55 NW 7 10.00 Fair CLR 46.4 44.6 93% 43 30.21 0.0
02 03:15 NW 7 10.00 Fair CLR 46.4 44.6 93% 43 30.2 0.0
02 02:55 NW 6 10.00 Fair CLR 46.4 44.6 93% 44 30.2 0.0
02 02:35 NW 7 10.00 Fair CLR 46.4 44.6 93% 43 30.2 0.0
02 02:15 NW 7 10.00 Fair CLR 46.4 44.6 93% 43 30.2 0.0
02 01:55 NW 7 10.00 Fair CLR 46.4 44.6 93% 43 30.21 0.0
02 01:35 NW 7 10.00 Mostly Cloudy SCT060 BKN070 BKN080 48.2 44.6 87% 46 30.21 0.0
02 01:15 NW 7 10.00 Overcast OVC060 48.2 44.6 87% 46 30.22 0.0
02 00:55 NW 6 10.00 Overcast OVC055 48.2 44.6 87% 46 30.22 0.0
02 00:15 NW 7 10.00 Overcast OVC055 48.2 44.6 87% 46 30.22 0.0
01 23:55 NW 6 10.00 Overcast OVC055 48.2 44.6 87% 46 30.22 0.0
01 23:35 NW 7 10.00 Overcast OVC060 48.2 44.6 87% 46 30.21 0.0
01 23:15 N 7 10.00 Overcast OVC060 48.2 44.6 87% 46 30.21 0.0
01 22:55 N 6 10.00 Mostly Cloudy BKN060 BKN100 46.4 44.6 93% 44 30.2 0.0
01 22:35 NW 6 10.00 Mostly Cloudy FEW060 BKN100 46.4 42.8 87% 44 30.2 0.0
01 22:15 NW 7 10.00 Overcast OVC100 48.2 44.6 87% 46 30.19 0.0
01 21:55 NW 9 10.00 Overcast OVC100 48.2 44.6 87% 45 30.19 0.0
01 21:35 NW 6 10.00 Overcast FEW050 FEW060 OVC095 48.2 44.6 87% 46 30.18 0.0
01 20:15 E 7 10.00 Mostly Cloudy SCT085 BKN120 48.2 42.8 82% 46 30.13 0.0
01 19:55 NE 7 10.00 Overcast BKN070 OVC090 48.2 42.8 82% 46 30.13 0.0
01 19:35 NE 8 10.00 Overcast BKN070 OVC095 50 42.8 76% 47 30.13 0.0
01 19:15 NE 12 10.00 Overcast OVC095 50 42.8 76% 46 30.12 0.0
01 18:55 NE 12 10.00 Mostly Cloudy BKN095 50 42.8 76% 46 30.12 0.0
01 18:35 NE 14 G 21 10.00 Partly Cloudy FEW035 FEW065 SCT090 50 42.8 76% 45 30.12 0.0
01 18:15 NE 15 G 21 10.00 Overcast FEW027 BKN033 OVC095 48.2 42.8 82% 43 30.12 0.0
01 17:50 NE 18 10.00 Overcast FEW019 BKN027 OVC033 48.2 44.6 87% 42 30.11 0.0
01 16:50 NE 13 6.00 Light Rain FEW013 SCT041 BKN050 50 48.2 94% 46 30.1 0.0
01 15:50 NE 17 6.00 Light Rain FEW016 BKN023 OVC029 50 46.4 88% 45 30.07 0.0
01 14:50 NE 20 10.00 Overcast SCT020 BKN027 OVC050 51.8 44.6 77% 30.07 0.0
Date Time (mdt) Wind (mph) Vis. (mi.) Weather Sky Cond. Air Dwpt Max. Min. Relative Humidity Wind Chill (°F) Heat Index (°F) altimeter (in) sea level (mb) 1 hr 3 hr 6 hr
6 hour
Temperature (ºF) Pressure Precipitation (in)